createdAt,value
2024-05-09T00:01:52.565Z,101335.09
2024-05-09T00:04:22.261Z,101335.28
2024-05-09T00:06:51.790Z,101339.22
2024-05-09T00:09:23.801Z,101343.38
2024-05-09T00:11:53.531Z,101335.19
2024-05-09T00:14:23.111Z,101337.38
2024-05-09T00:16:52.818Z,101333.13
2024-05-09T00:19:22.547Z,101332.66
2024-05-09T00:21:52.094Z,101331.38
2024-05-09T00:24:24.092Z,101333.50
2024-05-09T00:26:53.570Z,101336.22
2024-05-09T00:29:24.060Z,101337.69
2024-05-09T00:31:53.699Z,101344.69
2024-05-09T00:34:23.937Z,101344.25
2024-05-09T00:36:53.506Z,101351.91
2024-05-09T00:39:25.523Z,101355.72
2024-05-09T00:41:55.075Z,101356.53
2024-05-09T00:44:24.712Z,101344.75
2024-05-09T00:46:55.431Z,101343.66
2024-05-09T00:49:25.255Z,101340.53
2024-05-09T00:51:54.799Z,101336.28
2024-05-09T00:54:26.900Z,101333.50
2024-05-09T00:56:56.588Z,101342.22
2024-05-09T00:59:26.265Z,101332.31
2024-05-09T01:01:55.969Z,101332.25
2024-05-09T01:04:25.568Z,101334.78
2024-05-09T01:06:55.073Z,101339.03
2024-05-09T01:09:27.126Z,101335.97
2024-05-09T01:11:56.678Z,101336.47
2024-05-09T01:14:26.243Z,101330.53
2024-05-09T01:16:55.786Z,101336.28
2024-05-09T01:19:26.363Z,101331.56
2024-05-09T01:21:56.072Z,101337.84
2024-05-09T01:24:28.107Z,101340.72
2024-05-09T01:26:57.610Z,101338.72
2024-05-09T01:29:27.178Z,101342.22
2024-05-09T01:31:59.070Z,101348.63
2024-05-09T01:34:28.916Z,101343.13
2024-05-09T01:36:58.438Z,101346.59
2024-05-09T01:39:30.451Z,101347.91
2024-05-09T01:41:59.933Z,101345.63
2024-05-09T01:44:29.500Z,101344.13
2024-05-09T01:46:59.180Z,101353.66
2024-05-09T01:49:28.814Z,101353.06
2024-05-09T01:51:58.371Z,101353.84
2024-05-09T01:54:30.412Z,101353.66
2024-05-09T01:56:59.910Z,101349.50
2024-05-09T01:59:29.436Z,101346.16
2024-05-09T02:01:59.439Z,101354.06
2024-05-09T02:04:30.523Z,101357.78
2024-05-09T02:07:00.196Z,101354.50
2024-05-09T02:09:32.228Z,101349.44
2024-05-09T02:12:01.960Z,101358.06
2024-05-09T02:14:31.661Z,101361.19
2024-05-09T02:17:01.254Z,101354.47
2024-05-09T02:19:30.971Z,101364.28
2024-05-09T02:22:00.601Z,101358.75
2024-05-09T02:24:32.643Z,101368.06
2024-05-09T02:27:02.130Z,101373.25
2024-05-09T02:29:31.654Z,101370.03
2024-05-09T02:32:01.368Z,101369.41
2024-05-09T02:34:31.010Z,101374.38
2024-05-09T02:36:57.952Z,101367.34
2024-05-09T02:39:27.476Z,101370.28
2024-05-09T02:41:56.919Z,101364.47
2024-05-09T02:44:26.632Z,101365.19
2024-05-09T02:46:53.750Z,101353.53
2024-05-09T02:49:23.376Z,101359.97
2024-05-09T02:51:50.341Z,101363.03
2024-05-09T02:54:19.829Z,101362.38
2024-05-09T02:56:46.792Z,101359.66
2024-05-09T02:59:18.985Z,101362.91
2024-05-09T03:01:46.102Z,101370.94
2024-05-09T03:04:15.740Z,101360.44
2024-05-09T03:06:42.674Z,101367.28
2024-05-09T03:09:12.172Z,101366.09
2024-05-09T03:11:40.476Z,101368.31
2024-05-09T03:14:10.170Z,101363.78
2024-05-09T03:16:40.420Z,101365.78
2024-05-09T03:19:10.466Z,101357.84
2024-05-09T03:21:38.828Z,101361.78
2024-05-09T03:24:08.763Z,101367.34
2024-05-09T03:26:35.770Z,101370.06
2024-05-09T03:29:05.339Z,101367.53
2024-05-09T03:31:32.266Z,101370.78
2024-05-09T03:34:04.580Z,101368.84
2024-05-09T03:36:31.739Z,101368.56
2024-05-09T03:39:01.249Z,101369.56
2024-05-09T03:41:28.232Z,101367.50
2024-05-09T03:43:57.789Z,101369.59
2024-05-09T03:46:27.294Z,101369.38
2024-05-09T03:48:54.375Z,101361.84
2024-05-09T03:51:26.459Z,101365.56
2024-05-09T03:53:53.383Z,101372.81
2024-05-09T03:56:22.978Z,101363.81
2024-05-09T03:58:50.020Z,101372.78
2024-05-09T04:01:19.621Z,101372.00
2024-05-09T04:03:46.719Z,101372.97
2024-05-09T04:06:22.578Z,101382.00
2024-05-09T04:08:52.008Z,101376.72
2024-05-09T04:11:21.632Z,101378.56
2024-05-09T04:13:48.661Z,101385.56
2024-05-09T04:16:18.219Z,101383.75
2024-05-09T04:18:45.234Z,101381.69
2024-05-09T04:21:14.849Z,101380.81
2024-05-09T04:23:42.032Z,101381.53
2024-05-09T04:26:14.223Z,101384.75
2024-05-09T04:28:41.192Z,101380.63
2024-05-09T04:31:10.694Z,101387.34
2024-05-09T04:33:37.739Z,101394.09
2024-05-09T04:36:07.559Z,101391.09
2024-05-09T04:38:34.638Z,101384.13
2024-05-09T04:41:04.357Z,101389.88
2024-05-09T04:43:35.235Z,101390.88
2024-05-09T04:46:04.748Z,101393.28
2024-05-09T04:48:31.870Z,101394.78
2024-05-09T04:51:01.523Z,101397.63
2024-05-09T04:53:28.562Z,101405.78
2024-05-09T04:55:58.122Z,101401.31
2024-05-09T04:58:25.106Z,101402.69
2024-05-09T05:00:57.157Z,101408.63
2024-05-09T05:03:24.474Z,101399.31
2024-05-09T05:05:54.204Z,101406.69
2024-05-09T05:08:21.227Z,101408.72
2024-05-09T05:10:50.838Z,101418.66
2024-05-09T05:13:20.800Z,101411.31
2024-05-09T05:15:51.653Z,101403.13
2024-05-09T05:18:21.610Z,101401.34
2024-05-09T05:20:51.521Z,101403.63
2024-05-09T05:23:19.087Z,101408.41
2024-05-09T05:25:50.096Z,101402.72
2024-05-09T05:28:17.538Z,101401.97
2024-05-09T05:30:47.099Z,101395.19
2024-05-09T05:33:14.574Z,101403.13
2024-05-09T05:35:46.897Z,101402.16
2024-05-09T05:38:13.891Z,101404.75
2024-05-09T05:40:43.431Z,101409.56
2024-05-09T05:43:15.842Z,101404.44
2024-05-09T05:45:45.397Z,101406.59
2024-05-09T05:48:12.966Z,101412.44
2024-05-09T05:50:42.747Z,101414.91
2024-05-09T05:53:12.313Z,101411.69
2024-05-09T05:55:42.000Z,101409.94
2024-05-09T05:58:09.228Z,101408.09
2024-05-09T06:00:40.378Z,101410.03
2024-05-09T06:03:08.606Z,101410.34
2024-05-09T06:05:39.797Z,101414.06
2024-05-09T06:08:07.575Z,101409.97
2024-05-09T06:10:41.102Z,101417.84
2024-05-09T06:13:10.382Z,101415.00
2024-05-09T06:15:40.293Z,101421.94
2024-05-09T06:18:07.815Z,101426.19
2024-05-09T06:20:39.490Z,101419.25
2024-05-09T06:23:07.144Z,101422.47
2024-05-09T06:25:39.364Z,101421.94
2024-05-09T06:28:06.540Z,101430.25
2024-05-09T06:30:40.200Z,101428.63
2024-05-09T06:33:10.209Z,101423.47
2024-05-09T06:35:41.405Z,101423.28
2024-05-09T06:38:09.202Z,101422.84
2024-05-09T06:40:43.701Z,101417.78
2024-05-09T06:43:11.649Z,101419.59
2024-05-09T06:45:41.686Z,101425.53
2024-05-09T06:48:09.428Z,101421.28
2024-05-09T06:50:40.059Z,101427.97
2024-05-09T06:53:07.726Z,101427.75
2024-05-09T06:55:37.837Z,101420.56
2024-05-09T06:58:08.989Z,101412.53
2024-05-09T07:00:40.942Z,101420.53
2024-05-09T07:03:09.472Z,101419.97
2024-05-09T07:05:39.686Z,101415.91
2024-05-09T07:08:07.081Z,101412.72
2024-05-09T07:10:37.226Z,101412.91
2024-05-09T07:13:10.602Z,101416.75
2024-05-09T07:15:40.221Z,101413.88
2024-05-09T07:18:11.089Z,101413.59
2024-05-09T07:20:41.751Z,101419.91
2024-05-09T07:23:09.082Z,101410.69
2024-05-09T07:25:38.796Z,101410.19
2024-05-09T07:28:05.975Z,101413.19
2024-05-09T07:30:38.313Z,101417.56
2024-05-09T07:33:06.121Z,101414.72
2024-05-09T07:35:36.047Z,101412.56
2024-05-09T07:38:03.265Z,101413.66
2024-05-09T07:40:36.365Z,101406.22
2024-05-09T07:43:04.082Z,101407.06
2024-05-09T07:49:44.655Z,101402.56
2024-05-09T07:53:40.957Z,101402.06
2024-05-09T07:56:14.570Z,101395.25
2024-05-09T07:58:43.028Z,101399.00
2024-05-09T08:01:12.891Z,101403.63
2024-05-09T08:03:42.788Z,101397.31
2024-05-09T08:06:12.380Z,101390.94
2024-05-09T08:08:39.310Z,101395.72
2024-05-09T08:11:08.908Z,101391.72
2024-05-09T08:13:35.939Z,101396.97
2024-05-09T08:16:05.528Z,101388.09
2024-05-09T08:18:32.775Z,101384.13
2024-05-09T08:21:05.124Z,101382.63
2024-05-09T08:23:32.066Z,101383.94
2024-05-09T08:26:01.575Z,101390.72
2024-05-09T08:28:28.612Z,101392.00
2024-05-09T08:30:58.344Z,101390.59
2024-05-09T08:33:25.595Z,101387.53
2024-05-09T08:35:55.221Z,101387.66
2024-05-09T08:38:24.732Z,101388.00
2024-05-09T08:40:54.269Z,101387.94
2024-05-09T08:43:21.419Z,101390.94
2024-05-09T08:45:51.941Z,101385.31
2024-05-09T08:48:19.764Z,101383.84
2024-05-09T08:50:49.603Z,101383.72
2024-05-09T08:53:16.661Z,101383.88
2024-05-09T08:55:48.706Z,101382.56
2024-05-09T08:58:16.731Z,101372.47
2024-05-09T09:00:46.808Z,101377.06
2024-05-09T09:03:15.581Z,101372.94
2024-05-09T09:05:45.352Z,101376.06
2024-05-09T09:08:12.318Z,101364.75
2024-05-09T09:10:41.981Z,101377.78
2024-05-09T09:13:11.850Z,101374.22
2024-05-09T09:15:49.217Z,101380.19
2024-05-09T09:18:16.406Z,101381.75
2024-05-09T09:20:46.184Z,101382.63
2024-05-09T09:23:13.235Z,101381.97
2024-05-09T09:25:43.062Z,101384.75
2024-05-09T09:28:12.791Z,101383.63
2024-05-09T09:30:42.512Z,101383.03
2024-05-09T09:33:10.025Z,101379.47
2024-05-09T09:35:42.217Z,101382.81
2024-05-09T09:38:10.652Z,101381.81
2024-05-09T09:40:44.928Z,101383.53
2024-05-09T09:43:19.175Z,101370.00
2024-05-09T09:45:49.185Z,101391.00
2024-05-09T09:48:16.266Z,101377.06
2024-05-09T09:50:45.860Z,101387.28
2024-05-09T09:53:13.052Z,101384.94
2024-05-09T09:55:42.582Z,101383.34
2024-05-09T09:58:12.136Z,101377.22
2024-05-09T10:00:46.428Z,101375.50
2024-05-09T10:03:13.565Z,101374.28
2024-05-09T10:05:46.077Z,101375.25
2024-05-09T10:08:14.205Z,101369.03
2024-05-09T10:10:43.962Z,101372.22
2024-05-09T10:13:11.052Z,101382.91
2024-05-09T10:15:49.276Z,101376.34
2024-05-09T10:18:16.635Z,101383.56
2024-05-09T10:20:46.377Z,101393.88
2024-05-09T10:23:23.369Z,101379.00
2024-05-09T10:25:57.870Z,101392.91
2024-05-09T10:28:27.911Z,101376.66
2024-05-09T10:31:12.962Z,101389.38
2024-05-09T10:33:40.429Z,101385.91
2024-05-09T10:36:16.403Z,101389.56
2024-05-09T10:38:43.456Z,101360.94
2024-05-09T10:41:13.278Z,101365.16
2024-05-09T10:43:40.591Z,101374.63
2024-05-09T10:46:13.459Z,101376.78
2024-05-09T10:48:41.959Z,101381.31
2024-05-09T10:51:11.624Z,101381.81
2024-05-09T10:53:42.249Z,101371.44
2024-05-09T10:56:11.778Z,101351.50
2024-05-09T10:58:38.760Z,101327.22
2024-05-09T11:01:09.034Z,101339.72
2024-05-09T11:03:39.574Z,101355.50
2024-05-09T11:06:09.771Z,101366.44
2024-05-09T11:08:36.807Z,101340.53
2024-05-09T11:11:08.465Z,101347.44
2024-05-09T11:13:36.231Z,101354.09
2024-05-09T11:16:06.195Z,101352.97
2024-05-09T11:18:37.851Z,101354.34
2024-05-09T11:21:14.306Z,101353.19
2024-05-09T11:23:41.462Z,101338.25
2024-05-09T11:26:15.106Z,101341.41
2024-05-09T11:28:43.859Z,101337.16
2024-05-09T11:31:13.475Z,101320.97
2024-05-09T11:33:41.416Z,101306.13
2024-05-09T11:36:13.537Z,101309.69
2024-05-09T11:38:40.565Z,101299.88
2024-05-09T11:41:10.068Z,101297.09
2024-05-09T11:43:37.018Z,101330.22
2024-05-09T11:46:06.640Z,101320.44
2024-05-09T11:48:33.836Z,101319.31
2024-05-09T11:51:03.441Z,101318.31
2024-05-09T11:53:32.916Z,101313.16
2024-05-09T11:56:02.460Z,101323.81
2024-05-09T11:58:34.216Z,101309.19
2024-05-09T12:01:04.204Z,101317.53
2024-05-09T12:03:31.326Z,101306.94
2024-05-09T12:06:01.092Z,101306.81
2024-05-09T12:08:28.195Z,101319.94
2024-05-09T12:11:00.476Z,101296.53
2024-05-09T12:13:27.844Z,101300.94
2024-05-09T12:15:57.449Z,101283.19
2024-05-09T12:18:24.676Z,101288.28
2024-05-09T12:20:54.203Z,101296.88
2024-05-09T12:23:21.151Z,101293.50
2024-05-09T12:25:50.707Z,101265.41
2024-05-09T12:28:20.473Z,101285.78
2024-05-09T12:30:50.708Z,101281.91
2024-05-09T12:33:19.848Z,101292.44
2024-05-09T12:35:51.100Z,101276.34
2024-05-09T12:38:18.382Z,101280.38
2024-05-09T12:40:48.041Z,101276.84
2024-05-09T12:43:15.232Z,101260.78
2024-05-09T12:45:47.334Z,101258.63
2024-05-09T12:48:14.682Z,101253.97
2024-05-09T12:50:44.367Z,101259.25
2024-05-09T12:53:11.317Z,101256.81
2024-05-09T12:55:48.640Z,101255.13
2024-05-09T12:58:23.317Z,101244.81
2024-05-09T13:00:56.278Z,101242.94
2024-05-09T13:03:23.358Z,101248.56
2024-05-09T13:05:53.038Z,101233.69
2024-05-09T13:08:20.054Z,101226.25
2024-05-09T13:10:50.210Z,101220.72
2024-05-09T13:13:17.392Z,101225.22
2024-05-09T13:15:47.083Z,101212.06
2024-05-09T13:18:16.753Z,101216.25
2024-05-09T13:20:46.735Z,101208.94
2024-05-09T13:23:13.737Z,101214.94
2024-05-09T13:25:43.234Z,101214.50
2024-05-09T13:28:10.263Z,101203.38
2024-05-09T13:30:41.926Z,101194.91
2024-05-09T13:33:09.996Z,101200.00
2024-05-09T13:35:47.663Z,101193.88
2024-05-09T13:38:17.414Z,101196.81
2024-05-09T13:40:47.468Z,101196.66
2024-05-09T13:43:14.858Z,101186.00
2024-05-09T13:45:44.458Z,101181.50
2024-05-09T13:48:11.543Z,101177.00
2024-05-09T13:50:43.685Z,101181.72
2024-05-09T13:53:10.615Z,101180.81
2024-05-09T13:55:40.517Z,101164.09
2024-05-09T13:58:08.485Z,101171.31
2024-05-09T14:00:45.923Z,101167.78
2024-05-09T14:03:16.344Z,101166.78
2024-05-09T14:05:50.201Z,101153.28
2024-05-09T14:08:19.502Z,101156.03
2024-05-09T14:10:49.734Z,101149.56
2024-05-09T14:13:17.009Z,101150.34
2024-05-09T14:15:46.758Z,101138.28
2024-05-09T14:18:14.509Z,101145.16
2024-05-09T14:20:44.409Z,101137.72
2024-05-09T14:23:14.243Z,101142.16
2024-05-09T14:25:45.018Z,101144.16
2024-05-09T14:28:13.501Z,101137.50
2024-05-09T14:30:43.320Z,101138.31
2024-05-09T14:33:10.449Z,101127.13
2024-05-09T14:35:40.201Z,101124.28
2024-05-09T14:38:07.423Z,101126.28
2024-05-09T14:40:43.278Z,101132.31
2024-05-09T14:43:11.418Z,101099.75
2024-05-09T14:45:41.236Z,101113.72
2024-05-09T14:48:08.861Z,101112.25
2024-05-09T14:50:40.411Z,101111.94
2024-05-09T14:53:08.064Z,101107.31
2024-05-09T14:55:41.858Z,101101.84
2024-05-09T14:58:10.404Z,101087.53
2024-05-09T15:00:44.614Z,101092.25
2024-05-09T15:03:15.246Z,101077.28
2024-05-09T15:05:45.066Z,101076.91
2024-05-09T15:08:12.239Z,101073.63
2024-05-09T15:10:44.487Z,101075.22
2024-05-09T15:13:13.434Z,101070.66
2024-05-09T15:15:45.463Z,101078.38
2024-05-09T15:18:12.529Z,101078.53
2024-05-09T15:20:42.436Z,101070.88
2024-05-09T15:23:09.605Z,101068.91
2024-05-09T15:25:39.092Z,101060.78
2024-05-09T15:28:08.920Z,101066.94
2024-05-09T15:30:39.602Z,101056.00
2024-05-09T15:33:08.106Z,101050.63
2024-05-09T15:35:41.130Z,101057.63
2024-05-09T15:38:08.118Z,101059.19
2024-05-09T15:40:40.281Z,101053.22
2024-05-09T15:43:11.658Z,101042.88
2024-05-09T15:45:41.782Z,101039.53
2024-05-09T15:48:09.355Z,101036.59
2024-05-09T15:50:41.564Z,101039.91
2024-05-09T15:53:10.974Z,101048.06
2024-05-09T15:55:41.291Z,101041.63
2024-05-09T15:58:11.251Z,101037.16
2024-05-09T16:00:43.209Z,101020.81
2024-05-09T16:03:13.018Z,101025.91
2024-05-09T16:05:44.084Z,101019.41
2024-05-09T16:08:11.377Z,101011.94
2024-05-09T16:10:44.454Z,101019.19
2024-05-09T16:13:15.155Z,101013.44
2024-05-09T16:15:45.679Z,101017.13
2024-05-09T16:18:12.947Z,101019.34
2024-05-09T16:20:44.257Z,100999.56
2024-05-09T16:23:15.266Z,101006.28
2024-05-09T16:25:45.240Z,100998.63
2024-05-09T16:28:17.396Z,100989.91
2024-05-09T16:30:44.556Z,100995.94
2024-05-09T16:33:14.298Z,100995.75
2024-05-09T16:35:41.384Z,100999.44
2024-05-09T16:38:10.899Z,100992.09
2024-05-09T16:40:40.549Z,100999.09
2024-05-09T16:43:11.331Z,100999.44
2024-05-09T16:45:43.822Z,100995.97
2024-05-09T16:48:14.124Z,100996.44
2024-05-09T16:50:41.408Z,100994.63
2024-05-09T16:53:10.990Z,100992.56
2024-05-09T16:55:38.427Z,100999.25
2024-05-09T16:58:09.083Z,100988.56
2024-05-09T17:00:41.391Z,100987.91
2024-05-09T17:03:16.358Z,100988.94
2024-05-09T17:05:44.088Z,100995.75
2024-05-09T17:08:13.688Z,100989.47
2024-05-09T17:10:40.898Z,100987.00
2024-05-09T17:13:10.624Z,100988.03
2024-05-09T17:15:40.814Z,100989.09
2024-05-09T17:18:10.641Z,100984.31
2024-05-09T17:20:40.183Z,100987.91
2024-05-09T17:23:13.626Z,100983.56
2024-05-09T17:25:41.265Z,100983.94
2024-05-09T17:28:11.244Z,100987.91
2024-05-09T17:30:40.714Z,100992.34
2024-05-09T17:33:12.835Z,100983.69
2024-05-09T17:35:45.547Z,100990.47
2024-05-09T17:38:15.144Z,100984.44
2024-05-09T17:40:42.141Z,100986.69
2024-05-09T17:43:11.998Z,100985.34
2024-05-09T17:45:40.365Z,100985.44
2024-05-09T17:48:12.165Z,100990.34
2024-05-09T17:50:40.105Z,100987.53
2024-05-09T17:53:12.848Z,100993.41
2024-05-09T17:55:39.943Z,100990.81
2024-05-09T17:58:09.948Z,100989.38
2024-05-09T18:00:40.318Z,100988.91
2024-05-09T18:03:13.887Z,100984.13
2024-05-09T18:05:42.044Z,100986.91
2024-05-09T18:08:14.971Z,100986.94
2024-05-09T18:10:42.246Z,100987.88
2024-05-09T18:13:12.496Z,100988.03
2024-05-09T18:15:39.912Z,100983.19
2024-05-09T18:18:10.655Z,100988.00
2024-05-09T18:20:43.764Z,100991.63
2024-05-09T18:23:18.813Z,100989.06
2024-05-09T18:25:46.734Z,100985.50
2024-05-09T18:28:17.335Z,100983.75
2024-05-09T18:30:44.738Z,100988.69
2024-05-09T18:33:14.533Z,100981.00
2024-05-09T18:35:42.503Z,100980.91
2024-05-09T18:38:12.159Z,100990.59
2024-05-09T18:40:43.798Z,100991.66
2024-05-09T18:43:15.860Z,100987.16
2024-05-09T18:45:43.030Z,100986.44
2024-05-09T18:48:12.764Z,100994.50
2024-05-09T18:50:41.248Z,100995.75
2024-05-09T18:53:12.556Z,101000.19
2024-05-09T18:55:42.987Z,100999.41
2024-05-09T18:58:12.609Z,100997.28
2024-05-09T19:00:41.826Z,101013.72
2024-05-09T19:03:14.927Z,101006.63
2024-05-09T19:05:43.843Z,101008.97
2024-05-09T19:08:15.315Z,101011.75
2024-05-09T19:10:45.877Z,101009.63
2024-05-09T19:13:16.554Z,101009.97
2024-05-09T19:15:44.290Z,101009.19
2024-05-09T19:18:14.987Z,101010.75
2024-05-09T19:20:42.707Z,101018.00
2024-05-09T19:23:12.803Z,101016.34
2024-05-09T19:25:39.944Z,101015.28
2024-05-09T19:28:12.189Z,101018.53
2024-05-09T19:30:41.972Z,101017.88
2024-05-09T19:33:13.693Z,101021.03
2024-05-09T19:35:42.353Z,101026.81
2024-05-09T19:38:12.030Z,101021.66
2024-05-09T19:40:39.147Z,101023.38
2024-05-09T19:43:09.412Z,101020.94
2024-05-09T19:45:39.273Z,101027.16
2024-05-09T19:48:09.326Z,101020.69
2024-05-09T19:50:42.127Z,101029.94
2024-05-09T19:53:14.013Z,101032.63
2024-05-09T19:55:41.052Z,101030.22
2024-05-09T19:58:11.886Z,101035.78
2024-05-09T20:00:43.765Z,101032.34
2024-05-09T20:03:15.365Z,101041.47
2024-05-09T20:05:44.081Z,101037.78
2024-05-09T20:08:13.776Z,101037.59
2024-05-09T20:10:40.866Z,101032.25
2024-05-09T20:13:10.511Z,101033.81
2024-05-09T20:15:37.954Z,101040.56
2024-05-09T20:18:10.905Z,101040.97
2024-05-09T20:20:41.679Z,101042.97
2024-05-09T20:23:13.349Z,101039.13
2024-05-09T20:25:40.325Z,101045.03
2024-05-09T20:28:10.367Z,101045.03
2024-05-09T20:30:37.753Z,101048.03
2024-05-09T20:33:09.094Z,101040.69
2024-05-09T20:35:39.425Z,101045.81
2024-05-09T20:38:08.957Z,101047.72
2024-05-09T20:40:38.617Z,101042.16
2024-05-09T20:43:09.952Z,101047.91
2024-05-09T20:45:37.508Z,101052.75
2024-05-09T20:48:07.509Z,101052.19
2024-05-09T20:50:39.487Z,101048.53
2024-05-09T20:53:15.133Z,101053.34
2024-05-09T20:55:42.545Z,101046.84
2024-05-09T20:58:12.347Z,101058.16
2024-05-09T21:00:43.103Z,101046.09
2024-05-09T21:03:16.442Z,101054.50
2024-05-09T21:05:44.533Z,101053.19
2024-05-09T21:08:16.734Z,101056.50
2024-05-09T21:10:43.843Z,101060.03
2024-05-09T21:13:13.776Z,101061.50
2024-05-09T21:15:40.839Z,101058.56
2024-05-09T21:18:10.851Z,101068.94
2024-05-09T21:20:37.971Z,101060.22
2024-05-09T21:23:07.659Z,101060.41
2024-05-09T21:25:37.202Z,101062.81
2024-05-09T21:28:06.809Z,101069.50
2024-05-09T21:30:41.257Z,101052.81
2024-05-09T21:33:14.028Z,101059.09
2024-05-09T21:35:42.121Z,101062.75
2024-05-09T21:38:13.527Z,101059.66
2024-05-09T21:40:43.489Z,101055.00
2024-05-09T21:43:13.200Z,101060.31
2024-05-09T21:45:40.402Z,101059.38
2024-05-09T21:48:10.642Z,101061.44
2024-05-09T21:50:41.066Z,101065.50
2024-05-09T21:53:12.594Z,101061.06
2024-05-09T21:55:42.829Z,101058.03
2024-05-09T21:58:12.547Z,101065.03
2024-05-09T22:00:40.854Z,101067.59
2024-05-09T22:03:11.723Z,101058.38
2024-05-09T22:05:41.542Z,101064.78
2024-05-09T22:08:11.357Z,101064.47
2024-05-09T22:10:38.548Z,101063.13
2024-05-09T22:13:10.832Z,101058.88
2024-05-09T22:15:39.839Z,101059.97
2024-05-09T22:18:11.171Z,101064.94
2024-05-09T22:20:43.718Z,101063.25
2024-05-09T22:23:13.998Z,101065.84
2024-05-09T22:25:41.092Z,101074.88
2024-05-09T22:28:13.288Z,101074.09
2024-05-09T22:30:40.552Z,101065.22
2024-05-09T22:33:11.687Z,101070.72
2024-05-09T22:35:39.329Z,101066.06
2024-05-09T22:38:09.092Z,101071.56
2024-05-09T22:40:45.535Z,101065.50
2024-05-09T22:43:24.398Z,101058.59
2024-05-09T22:45:52.367Z,101067.94
2024-05-09T22:48:22.295Z,101066.94
2024-05-09T22:50:49.431Z,101064.88
2024-05-09T22:53:18.967Z,101068.31
2024-05-09T22:55:45.949Z,101064.56
2024-05-09T22:58:15.608Z,101064.44
2024-05-09T23:00:45.253Z,101066.63
2024-05-09T23:03:15.795Z,101061.78
2024-05-09T23:05:42.875Z,101061.81
2024-05-09T23:08:13.038Z,101054.84
2024-05-09T23:10:40.058Z,101065.81
2024-05-09T23:13:09.701Z,101066.38
2024-05-09T23:15:37.079Z,101058.91
2024-05-09T23:18:09.626Z,101053.38
2024-05-09T23:20:39.243Z,101062.19
2024-05-09T23:23:10.943Z,101054.03
2024-05-09T23:25:38.893Z,101060.41
2024-05-09T23:28:08.741Z,101059.16
2024-05-09T23:30:39.076Z,101056.84
2024-05-09T23:33:14.096Z,101061.44
2024-05-09T23:35:41.613Z,101059.28
2024-05-09T23:38:11.146Z,101057.78
2024-05-09T23:40:40.551Z,101058.72
2024-05-09T23:43:12.135Z,101060.16
2024-05-09T23:45:39.780Z,101050.63
2024-05-09T23:48:12.247Z,101050.91
2024-05-09T23:50:40.470Z,101045.56
2024-05-09T23:53:11.197Z,101048.41
2024-05-09T23:55:38.581Z,101053.41
2024-05-09T23:58:08.558Z,101055.75
